Time;durP1;ratioP1;P1;durP2;ratioP2;P2;SDS_P1;SDS_P2;PMS_P1;PMS_P2;Temp;Humidity;BMP_temperature;BMP_pressure;BME280_temperature;BME280_humidity;BME280_pressure;Samples;Min_cycle;Max_cycle;Signal;HPM_P1;HPM_P2
2022/12/18 00:01:00;;;;;;;56.75;26.17;;;;;;;;;;6231822;22;20011;-91
2022/12/18 00:03:26;;;;;;;60.88;26.98;;;;;;;;;;6242595;23;19999;-93
2022/12/18 00:05:53;;;;;;;60.95;27.52;;;;;;;;;;6229944;23;20000;-91
2022/12/18 00:08:28;;;;;;;60.60;27.20;;;;;;;;;;6223693;23;20004;-91
2022/12/18 00:10:55;;;;;;;61.10;27.38;;;;;;;;;;6221706;23;20012;-92
2022/12/18 00:31:59;;;;;;;51.35;22.33;;;;;;;;;;6255238;22;20032;-91
2022/12/18 00:34:40;;;;;;;50.67;23.33;;;;;;;;;;6253192;22;20012;-92
2022/12/18 00:55:11;;;;;;;50.15;22.38;;;;;;;;;;6246682;22;20027;-93
2022/12/18 01:15:40;;;;;;;44.88;18.75;;;;;;;;;;6219925;23;20021;-92
2022/12/18 01:18:09;;;;;;;38.77;18.70;;;;;;;;;;6194817;23;20011;-92
2022/12/18 01:20:35;;;;;;;41.05;18.92;;;;;;;;;;6197109;23;20056;-92
2022/12/18 01:23:02;;;;;;;41.08;19.10;;;;;;;;;;6194492;23;20025;-92
2022/12/18 01:25:37;;;;;;;41.50;19.48;;;;;;;;;;6171787;23;20029;-91
2022/12/18 01:28:06;;;;;;;45.17;20.30;;;;;;;;;;6193735;23;20051;-91
2022/12/18 01:30:32;;;;;;;42.35;19.90;;;;;;;;;;6193633;23;20008;-91
2022/12/18 01:33:14;;;;;;;46.80;21.33;;;;;;;;;;6196504;23;20017;-90
2022/12/18 01:35:41;;;;;;;46.22;21.17;;;;;;;;;;6191799;23;20087;-91
2022/12/18 01:38:07;;;;;;;47.13;22.30;;;;;;;;;;6194216;23;20017;-91
2022/12/18 01:40:34;;;;;;;42.08;20.73;;;;;;;;;;6201020;23;20059;-90
2022/12/18 01:43:00;;;;;;;47.88;22.08;;;;;;;;;;6199211;23;20259;-91
2022/12/18 01:47:59;;;;;;;54.30;23.52;;;;;;;;;;6226109;22;20032;-93
2022/12/18 01:50:35;;;;;;;50.97;23.13;;;;;;;;;;6190852;23;20091;-92
2022/12/18 01:59:47;;;;;;;53.85;23.20;;;;;;;;;;6216276;23;20000;-91
2022/12/18 02:02:14;;;;;;;50.33;23.08;;;;;;;;;;6187733;23;20005;-91
2022/12/18 02:04:43;;;;;;;48.40;22.15;;;;;;;;;;6188824;23;20005;-93
2022/12/18 02:07:15;;;;;;;47.53;22.70;;;;;;;;;;6189350;23;20034;-92
2022/12/18 02:09:46;;;;;;;52.03;22.50;;;;;;;;;;6196242;23;20051;-91
2022/12/18 02:12:20;;;;;;;47.97;21.63;;;;;;;;;;6190117;23;20036;-90
2022/12/18 02:14:46;;;;;;;49.28;21.88;;;;;;;;;;6189060;23;20011;-92
2022/12/18 02:17:24;;;;;;;50.17;23.40;;;;;;;;;;6189746;23;20036;-93
2022/12/18 02:20:06;;;;;;;51.47;22.55;;;;;;;;;;6194191;23;20032;-93
2022/12/18 02:22:41;;;;;;;46.88;21.95;;;;;;;;;;6194980;23;20430;-92
2022/12/18 02:25:27;;;;;;;45.25;21.52;;;;;;;;;;6191209;23;20004;-93
2022/12/18 02:27:53;;;;;;;52.72;23.38;;;;;;;;;;6190208;23;20008;-91
2022/12/18 02:30:21;;;;;;;61.95;26.05;;;;;;;;;;6189691;23;20004;-91
2022/12/18 02:32:52;;;;;;;51.55;24.17;;;;;;;;;;6189728;23;20020;-92
2022/12/18 02:35:24;;;;;;;52.00;23.98;;;;;;;;;;6191822;23;20004;-93
2022/12/18 02:37:51;;;;;;;57.83;25.35;;;;;;;;;;6191619;23;20008;-92
2022/12/18 02:40:18;;;;;;;51.55;24.30;;;;;;;;;;6192549;23;20028;-92
2022/12/18 02:42:44;;;;;;;49.33;23.30;;;;;;;;;;6195362;23;20414;-92
2022/12/18 02:45:10;;;;;;;50.45;22.15;;;;;;;;;;6188896;23;20004;-93
2022/12/18 02:47:38;;;;;;;51.45;22.27;;;;;;;;;;6210064;23;20023;-92
2022/12/18 02:50:42;;;;;;;54.42;23.77;;;;;;;;;;6217907;23;20040;-92
2022/12/18 02:53:17;;;;;;;55.97;22.67;;;;;;;;;;6215129;23;20039;-93
2022/12/18 02:55:44;;;;;;;63.38;28.67;;;;;;;;;;6215182;23;20008;-92
2022/12/18 02:58:16;;;;;;;63.33;25.83;;;;;;;;;;6215061;23;20040;-92
2022/12/18 03:00:52;;;;;;;56.05;24.83;;;;;;;;;;6217554;23;20087;-92
2022/12/18 03:03:40;;;;;;;58.05;25.88;;;;;;;;;;6214748;23;20039;-92
2022/12/18 03:06:09;;;;;;;56.83;24.65;;;;;;;;;;6216064;23;20000;-93
2022/12/18 03:08:40;;;;;;;55.22;23.77;;;;;;;;;;6214782;23;20097;-92
2022/12/18 03:12:22;;;;;;;57.17;22.55;;;;;;;;;;6217306;23;20004;-92
2022/12/18 03:14:14;;;;;;;52.50;22.63;;;;;;;;;;6213178;23;20021;-91
2022/12/18 03:16:43;;;;;;;50.67;22.45;;;;;;;;;;6215030;23;20012;-91
2022/12/18 03:19:16;;;;;;;53.97;23.63;;;;;;;;;;6214198;23;20005;-93
2022/12/18 03:21:53;;;;;;;48.08;22.23;;;;;;;;;;6216620;23;20407;-92
2022/12/18 03:24:24;;;;;;;47.85;21.40;;;;;;;;;;6213640;23;20001;-92
2022/12/18 03:27:06;;;;;;;47.60;21.13;;;;;;;;;;6239457;22;20004;-92
2022/12/18 03:29:48;;;;;;;46.25;20.38;;;;;;;;;;6223251;23;20012;-93
2022/12/18 03:32:40;;;;;;;48.20;21.58;;;;;;;;;;6214590;23;20035;-91
2022/12/18 03:35:08;;;;;;;47.33;21.08;;;;;;;;;;6211427;23;20055;-92
2022/12/18 03:37:35;;;;;;;48.53;21.42;;;;;;;;;;6215339;23;20092;-92
2022/12/18 03:40:01;;;;;;;48.58;21.80;;;;;;;;;;6213612;23;20063;-93
2022/12/18 03:42:27;;;;;;;52.50;23.45;;;;;;;;;;6216197;23;20004;-92
2022/12/18 03:44:58;;;;;;;50.60;22.88;;;;;;;;;;6214933;23;20444;-90
2022/12/18 03:47:56;;;;;;;46.03;20.77;;;;;;;;;;6225148;23;20031;-90
2022/12/18 03:50:27;;;;;;;52.30;22.83;;;;;;;;;;6165830;23;20013;-92
2022/12/18 04:03:24;;;;;;;55.03;22.80;;;;;;;;;;6245769;23;20074;-91
2022/12/18 04:13:43;;;;;;;54.70;24.55;;;;;;;;;;6247561;23;20311;-93
2022/12/18 04:16:09;;;;;;;60.42;25.65;;;;;;;;;;6221055;23;20142;-89
2022/12/18 04:18:36;;;;;;;55.28;24.25;;;;;;;;;;6218492;23;20000;-92
2022/12/18 04:21:02;;;;;;;73.47;29.38;;;;;;;;;;6217874;23;20047;-92
2022/12/18 04:23:28;;;;;;;77.68;33.50;;;;;;;;;;6218167;23;20047;-91
2022/12/18 04:25:54;;;;;;;82.15;32.33;;;;;;;;;;6218131;23;20000;-92
2022/12/18 04:28:21;;;;;;;68.78;30.20;;;;;;;;;;6218542;23;20004;-93
2022/12/18 04:30:50;;;;;;;72.32;30.42;;;;;;;;;;6221902;23;20087;-92
2022/12/18 04:36:21;;;;;;;76.07;28.90;;;;;;;;;;6249189;22;20026;-91
2022/12/18 04:46:46;;;;;;;66.55;27.02;;;;;;;;;;6262782;22;20024;-92
2022/12/18 04:49:13;;;;;;;69.20;27.02;;;;;;;;;;6248628;22;20038;-91
2022/12/18 04:51:39;;;;;;;74.32;30.25;;;;;;;;;;6253087;22;20015;-91
2022/12/18 04:56:41;;;;;;;73.38;28.90;;;;;;;;;;6275572;22;20506;-90
2022/12/18 05:01:37;;;;;;;95.10;35.53;;;;;;;;;;6245064;23;20051;-92
2022/12/18 05:04:03;;;;;;;72.95;29.40;;;;;;;;;;6243284;23;20054;-91
2022/12/18 05:06:29;;;;;;;75.80;29.15;;;;;;;;;;6245701;22;20397;-90
2022/12/18 05:08:55;;;;;;;74.05;28.75;;;;;;;;;;6269705;22;20019;-91
2022/12/18 05:11:22;;;;;;;67.78;27.27;;;;;;;;;;6229755;22;20335;-92
2022/12/18 05:13:48;;;;;;;63.88;26.08;;;;;;;;;;6213983;23;20145;-92
2022/12/18 05:16:15;;;;;;;70.32;27.88;;;;;;;;;;6213143;23;20001;-91
2022/12/18 05:18:41;;;;;;;65.55;25.30;;;;;;;;;;6212597;23;20071;-92
2022/12/18 05:21:07;;;;;;;65.43;26.90;;;;;;;;;;6212715;23;20000;-92
2022/12/18 05:26:04;;;;;;;70.93;26.48;;;;;;;;;;6216394;22;20020;-93
2022/12/18 05:28:31;;;;;;;62.25;26.20;;;;;;;;;;6190257;22;20023;-92
2022/12/18 05:30:58;;;;;;;70.90;27.48;;;;;;;;;;6190109;23;20027;-92
2022/12/18 05:33:26;;;;;;;66.60;26.23;;;;;;;;;;6187667;23;20012;-92
2022/12/18 05:35:56;;;;;;;68.15;26.95;;;;;;;;;;6187495;23;20103;-91
2022/12/18 05:38:23;;;;;;;70.50;27.20;;;;;;;;;;6188818;23;19993;-92
2022/12/18 05:46:08;;;;;;;59.70;23.77;;;;;;;;;;6249765;23;20020;-92
2022/12/18 05:48:34;;;;;;;59.78;24.70;;;;;;;;;;6262478;22;20068;-92
2022/12/18 05:51:11;;;;;;;54.70;23.25;;;;;;;;;;6253657;22;20318;-94
2022/12/18 05:53:37;;;;;;;57.28;22.75;;;;;;;;;;6249206;22;20046;-94
2022/12/18 05:56:04;;;;;;;52.67;22.80;;;;;;;;;;6250432;22;20008;-94
2022/12/18 05:58:31;;;;;;;53.15;23.42;;;;;;;;;;6250480;22;19992;-92
2022/12/18 06:01:17;;;;;;;50.90;21.35;;;;;;;;;;6248744;22;20016;-93
2022/12/18 06:03:43;;;;;;;55.60;22.80;;;;;;;;;;6247745;22;20080;-92
2022/12/18 06:06:14;;;;;;;49.72;20.27;;;;;;;;;;6247991;22;20012;-92
2022/12/18 06:08:40;;;;;;;54.53;23.58;;;;;;;;;;6248132;22;20055;-93
2022/12/18 06:11:07;;;;;;;48.65;21.77;;;;;;;;;;6249743;22;20306;-95
2022/12/18 06:13:33;;;;;;;50.50;21.10;;;;;;;;;;6247504;22;20035;-94
2022/12/18 06:16:04;;;;;;;52.38;22.80;;;;;;;;;;6247890;22;20032;-93
2022/12/18 06:18:31;;;;;;;51.38;22.80;;;;;;;;;;6250706;22;20014;-93
2022/12/18 06:21:13;;;;;;;48.55;21.52;;;;;;;;;;6249856;22;20004;-94
2022/12/18 06:23:43;;;;;;;56.63;22.42;;;;;;;;;;6250737;22;20058;-96
2022/12/18 06:26:11;;;;;;;52.58;22.55;;;;;;;;;;6254291;22;20061;-94
2022/12/18 06:28:37;;;;;;;52.83;21.80;;;;;;;;;;6248956;22;20023;-94
2022/12/18 06:31:03;;;;;;;53.63;22.05;;;;;;;;;;6247670;22;20814;-94
2022/12/18 06:33:30;;;;;;;51.92;22.42;;;;;;;;;;6246277;22;20401;-95
2022/12/18 06:36:01;;;;;;;55.38;22.92;;;;;;;;;;6247009;22;20054;-95
2022/12/18 06:38:27;;;;;;;52.17;21.90;;;;;;;;;;6254842;22;20008;-94
2022/12/18 06:40:53;;;;;;;54.15;22.65;;;;;;;;;;6262524;22;20004;-92
2022/12/18 06:43:22;;;;;;;60.55;23.17;;;;;;;;;;6257156;22;20003;-91
2022/12/18 06:46:07;;;;;;;61.00;23.48;;;;;;;;;;6252281;23;20454;-93
2022/12/18 06:48:59;;;;;;;55.05;23.00;;;;;;;;;;6258216;22;20023;-93
2022/12/18 06:51:30;;;;;;;53.67;22.70;;;;;;;;;;6272860;22;20083;-91
2022/12/18 06:53:56;;;;;;;63.20;23.90;;;;;;;;;;6263316;22;20012;-94
2022/12/18 06:56:25;;;;;;;59.60;24.42;;;;;;;;;;6254263;22;20037;-92
2022/12/18 06:58:52;;;;;;;62.83;25.45;;;;;;;;;;6254464;23;20023;-92
2022/12/18 07:04:27;;;;;;;52.40;21.77;;;;;;;;;;6256674;23;20055;-94
2022/12/18 07:06:53;;;;;;;54.15;21.45;;;;;;;;;;6256323;22;20008;-93
2022/12/18 07:09:23;;;;;;;52.58;21.70;;;;;;;;;;6254539;22;20004;-95
2022/12/18 07:11:50;;;;;;;56.28;23.63;;;;;;;;;;6229955;23;20052;-93
2022/12/18 07:23:01;;;;;;;55.53;23.02;;;;;;;;;;6256068;22;20416;-95
2022/12/18 07:25:39;;;;;;;46.10;21.08;;;;;;;;;;6258869;22;20043;-93
2022/12/18 07:28:24;;;;;;;42.97;20.27;;;;;;;;;;6261101;23;20111;-94
2022/12/18 07:30:50;;;;;;;41.45;19.88;;;;;;;;;;6255843;23;20008;-95
2022/12/18 07:33:17;;;;;;;39.03;20.17;;;;;;;;;;6230510;23;20008;-95
2022/12/18 07:35:43;;;;;;;37.28;19.73;;;;;;;;;;6249483;23;20082;-93
2022/12/18 07:38:10;;;;;;;42.35;20.30;;;;;;;;;;6247818;23;20087;-96
2022/12/18 07:40:42;;;;;;;40.72;21.27;;;;;;;;;;6248707;23;20012;-95
2022/12/18 07:43:08;;;;;;;39.72;23.15;;;;;;;;;;6247862;23;20032;-92
2022/12/18 07:45:35;;;;;;;42.40;24.15;;;;;;;;;;6222083;23;20012;-95
2022/12/18 07:48:01;;;;;;;39.85;23.20;;;;;;;;;;6248699;23;20058;-96
2022/12/18 07:50:27;;;;;;;42.13;23.92;;;;;;;;;;6255251;23;20028;-92
2022/12/18 07:52:53;;;;;;;40.80;24.38;;;;;;;;;;6251868;23;20567;-93
2022/12/18 07:55:20;;;;;;;43.35;25.55;;;;;;;;;;6248007;23;20432;-93
2022/12/18 07:57:48;;;;;;;43.70;25.63;;;;;;;;;;6247283;23;20011;-92
2022/12/18 08:00:15;;;;;;;41.83;24.23;;;;;;;;;;6247531;23;20068;-93
2022/12/18 08:02:41;;;;;;;40.42;24.58;;;;;;;;;;6252497;23;20004;-92
2022/12/18 08:07:37;;;;;;;45.03;28.23;;;;;;;;;;6248979;23;20139;-93
2022/12/18 08:10:27;;;;;;;44.85;25.88;;;;;;;;;;6222390;23;20461;-94
2022/12/18 08:12:53;;;;;;;41.33;24.45;;;;;;;;;;6224121;23;20073;-93
2022/12/18 08:15:26;;;;;;;38.55;25.08;;;;;;;;;;6222634;23;20426;-96
2022/12/18 08:17:52;;;;;;;40.25;26.45;;;;;;;;;;6228214;23;20035;-93
2022/12/18 08:20:18;;;;;;;35.55;24.38;;;;;;;;;;6233854;23;20050;-92
2022/12/18 08:23:18;;;;;;;37.58;28.20;;;;;;;;;;6225907;23;20024;-94
2022/12/18 08:26:15;;;;;;;35.83;25.50;;;;;;;;;;6227936;23;20419;-92
2022/12/18 08:28:41;;;;;;;37.05;28.05;;;;;;;;;;6223087;23;20015;-92
2022/12/18 08:31:07;;;;;;;35.47;25.88;;;;;;;;;;6222240;23;20006;-90
2022/12/18 08:33:37;;;;;;;38.88;28.63;;;;;;;;;;6220359;23;20039;-96
2022/12/18 08:36:04;;;;;;;33.08;24.70;;;;;;;;;;6223540;23;20000;-91
2022/12/18 08:38:30;;;;;;;34.60;26.50;;;;;;;;;;6223633;23;20015;-91
2022/12/18 08:41:03;;;;;;;37.47;28.15;;;;;;;;;;6222297;23;20011;-93
2022/12/18 08:46:16;;;;;;;35.63;24.17;;;;;;;;;;6254545;23;20297;-94
2022/12/18 08:48:45;;;;;;;36.15;26.92;;;;;;;;;;6224327;23;20005;-93
2022/12/18 08:51:36;;;;;;;36.70;27.70;;;;;;;;;;6224261;23;20038;-93
2022/12/18 08:54:37;;;;;;;33.17;26.00;;;;;;;;;;6221085;23;20020;-93
2022/12/18 09:04:54;;;;;;;40.28;30.15;;;;;;;;;;6259019;23;20072;-93
2022/12/18 09:07:20;;;;;;;36.25;28.17;;;;;;;;;;6225181;23;20004;-93
2022/12/18 09:10:05;;;;;;;36.50;28.75;;;;;;;;;;6230317;23;20008;-94
2022/12/18 09:12:31;;;;;;;45.63;34.38;;;;;;;;;;6227860;23;20016;-93
2022/12/18 09:15:00;;;;;;;39.33;30.38;;;;;;;;;;6225369;23;20011;-93
2022/12/18 09:17:36;;;;;;;41.92;31.88;;;;;;;;;;6253743;23;20496;-93
2022/12/18 09:35:22;;;;;;;33.78;25.17;;;;;;;;;;6259568;22;20036;-95
2022/12/18 09:37:49;;;;;;;34.15;24.20;;;;;;;;;;6260685;22;20012;-93
2022/12/18 09:43:22;;;;;;;46.08;28.90;;;;;;;;;;6280999;22;20058;-91
2022/12/18 09:45:50;;;;;;;42.00;28.13;;;;;;;;;;6251592;22;20329;-91
2022/12/18 09:48:24;;;;;;;39.40;25.92;;;;;;;;;;6252743;22;20023;-93
2022/12/18 09:50:59;;;;;;;;;;;;;;;;;;6256238;22;20004;-93
2022/12/18 09:53:36;;;;;;;46.88;29.73;;;;;;;;;;6228498;22;19907;-95
2022/12/18 09:56:04;;;;;;;44.15;28.60;;;;;;;;;;6254454;22;20061;-95
2022/12/18 09:58:58;;;;;;;44.05;29.42;;;;;;;;;;6257218;22;20006;-93
2022/12/18 10:14:36;;;;;;;37.67;26.10;;;;;;;;;;6254592;23;20031;-93
2022/12/18 10:17:15;;;;;;;40.78;27.00;;;;;;;;;;6253221;23;20054;-94
2022/12/18 10:19:49;;;;;;;40.17;26.92;;;;;;;;;;6252189;23;20084;-94
2022/12/18 10:22:33;;;;;;;39.88;26.20;;;;;;;;;;6256844;23;20004;-94
2022/12/18 10:25:38;;;;;;;42.53;28.70;;;;;;;;;;6252700;23;20008;-95
2022/12/18 10:28:12;;;;;;;41.85;27.02;;;;;;;;;;6161279;23;20020;-94
2022/12/18 10:30:54;;;;;;;;;;;;;;;;;;;;;
2022/12/18 10:33:23;;;;;;;39.20;25.83;;;;;;;;;;6261319;23;20039;-94
2022/12/18 10:36:04;;;;;;;;;;;;;;;;;;;;;
2022/12/18 10:38:34;;;;;;;45.10;27.77;;;;;;;;;;6254086;23;20020;-94
2022/12/18 10:41:11;;;;;;;45.55;28.02;;;;;;;;;;6257935;23;20088;-95
2022/12/18 10:43:53;;;;;;;44.92;27.48;;;;;;;;;;6236870;23;20004;-95
2022/12/18 10:46:38;;;;;;;41.53;25.70;;;;;;;;;;6249516;23;20004;-96
2022/12/18 10:49:07;;;;;;;46.00;27.60;;;;;;;;;;6270523;22;20014;-95
2022/12/18 10:56:45;;;;;;;48.35;27.02;;;;;;;;;;6286786;22;20027;-94
2022/12/18 10:59:20;;;;;;;49.95;28.42;;;;;;;;;;6263577;22;20015;-96
2022/12/18 11:01:50;;;;;;;46.53;25.85;;;;;;;;;;6266445;22;20015;-96
2022/12/18 11:04:22;;;;;;;51.92;27.88;;;;;;;;;;6267498;22;20108;-94
2022/12/18 11:07:02;;;;;;;53.00;30.50;;;;;;;;;;6267647;22;20033;-95
2022/12/18 11:09:33;;;;;;;49.63;28.70;;;;;;;;;;6265425;22;20003;-96
2022/12/18 11:12:00;;;;;;;51.78;29.77;;;;;;;;;;6260150;22;20008;-95
2022/12/18 11:14:29;;;;;;;51.90;30.02;;;;;;;;;;6264774;22;20035;-96
2022/12/18 11:16:56;;;;;;;48.08;27.40;;;;;;;;;;6259102;22;20000;-95
2022/12/18 11:19:36;;;;;;;52.13;28.67;;;;;;;;;;6256892;22;20393;-94
2022/12/18 11:22:21;;;;;;;51.25;28.63;;;;;;;;;;6260119;22;20007;-96
2022/12/18 11:24:55;;;;;;;51.10;28.75;;;;;;;;;;6266710;22;20433;-93
2022/12/18 11:27:24;;;;;;;59.10;30.67;;;;;;;;;;6263463;22;20027;-96
2022/12/18 11:29:54;;;;;;;55.15;28.83;;;;;;;;;;6264607;22;20455;-95
2022/12/18 11:32:20;;;;;;;58.97;30.58;;;;;;;;;;6262880;22;20067;-95
2022/12/18 11:34:49;;;;;;;56.67;29.88;;;;;;;;;;6257050;22;20023;-94
2022/12/18 11:37:19;;;;;;;49.95;27.52;;;;;;;;;;6261604;22;20010;-95
2022/12/18 11:40:15;;;;;;;54.95;30.40;;;;;;;;;;6293710;22;20026;-96
2022/12/18 11:42:52;;;;;;;56.40;28.05;;;;;;;;;;6279294;22;20426;-94
2022/12/18 11:45:25;;;;;;;56.88;30.50;;;;;;;;;;6255874;22;20008;-95
2022/12/18 11:48:06;;;;;;;54.50;28.98;;;;;;;;;;6253966;22;20006;-94
2022/12/18 11:50:38;;;;;;;52.42;28.50;;;;;;;;;;6257851;22;20007;-95
2022/12/18 11:53:05;;;;;;;54.78;28.80;;;;;;;;;;6254424;22;20019;-94
2022/12/18 11:55:49;;;;;;;52.22;28.85;;;;;;;;;;6256143;23;20117;-93
2022/12/18 11:58:45;;;;;;;55.63;29.45;;;;;;;;;;6251257;23;20008;-95
2022/12/18 12:01:27;;;;;;;56.53;29.08;;;;;;;;;;6241464;23;20003;-93
2022/12/18 12:03:56;;;;;;;51.17;26.92;;;;;;;;;;6248979;23;20429;-94
2022/12/18 12:06:34;;;;;;;61.35;29.90;;;;;;;;;;6248465;23;20040;-93
2022/12/18 12:09:03;;;;;;;51.70;27.55;;;;;;;;;;6248556;23;20461;-94
2022/12/18 12:11:38;;;;;;;53.72;27.50;;;;;;;;;;6250899;23;20006;-95
2022/12/18 12:22:29;;;;;;;52.15;27.67;;;;;;;;;;6246796;22;20020;-96
2022/12/18 12:28:26;;;;;;;52.60;26.48;;;;;;;;;;6250617;23;20015;-95
2022/12/18 12:30:52;;;;;;;51.60;27.13;;;;;;;;;;6194579;23;20414;-95
2022/12/18 12:34:02;;;;;;;50.15;26.10;;;;;;;;;;6222935;23;20098;-95
2022/12/18 12:36:49;;;;;;;55.90;28.02;;;;;;;;;;6185601;22;20020;-94
2022/12/18 12:39:18;;;;;;;55.85;28.15;;;;;;;;;;6274923;22;20018;-91
2022/12/18 12:44:55;;;;;;;53.65;26.17;;;;;;;;;;6289058;22;20018;-93
2022/12/18 12:47:24;;;;;;;56.50;27.85;;;;;;;;;;6244979;22;20000;-95
2022/12/18 12:49:53;;;;;;;54.30;26.30;;;;;;;;;;6255009;22;20075;-93
2022/12/18 12:52:25;;;;;;;60.53;27.63;;;;;;;;;;6254594;22;20007;-94
2022/12/18 12:54:57;;;;;;;49.65;24.80;;;;;;;;;;6252686;22;20008;-94
2022/12/18 13:09:09;;;;;;;53.05;24.77;;;;;;;;;;6246699;23;20016;-95
2022/12/18 13:14:55;;;;;;;55.67;25.70;;;;;;;;;;6245070;23;20070;-94
2022/12/18 13:17:31;;;;;;;52.10;25.48;;;;;;;;;;6218868;23;20031;-94
2022/12/18 13:20:14;;;;;;;55.33;26.60;;;;;;;;;;6224087;23;20004;-92
2022/12/18 13:22:52;;;;;;;56.05;27.10;;;;;;;;;;6221696;23;20015;-93
2022/12/18 13:25:36;;;;;;;52.72;25.92;;;;;;;;;;6222974;23;20004;-93
2022/12/18 13:28:17;;;;;;;55.60;26.40;;;;;;;;;;6253524;23;20043;-94
2022/12/18 13:30:54;;;;;;;51.40;24.92;;;;;;;;;;6222058;23;20081;-93
2022/12/18 13:33:23;;;;;;;53.08;25.35;;;;;;;;;;6221869;23;20020;-93
2022/12/18 13:35:49;;;;;;;59.85;27.25;;;;;;;;;;6224504;23;20373;-93
2022/12/18 13:38:34;;;;;;;61.53;29.02;;;;;;;;;;6250794;23;20008;-93
2022/12/18 13:41:19;;;;;;;64.65;30.88;;;;;;;;;;6231337;23;20009;-93
2022/12/18 13:43:57;;;;;;;63.08;30.10;;;;;;;;;;6222096;23;20004;-93
2022/12/18 13:46:24;;;;;;;60.83;27.58;;;;;;;;;;6219859;23;20035;-92
2022/12/18 13:55:28;;;;;;;56.78;26.90;;;;;;;;;;6265021;22;20003;-94
2022/12/18 13:58:20;;;;;;;56.92;26.70;;;;;;;;;;6228401;23;20086;-95
2022/12/18 14:00:55;;;;;;;53.30;25.83;;;;;;;;;;6228444;23;20000;-95
2022/12/18 14:03:23;;;;;;;55.42;26.08;;;;;;;;;;6226242;23;20007;-95
2022/12/18 14:06:04;;;;;;;56.60;25.23;;;;;;;;;;6227452;22;20035;-94
2022/12/18 14:08:41;;;;;;;53.80;24.60;;;;;;;;;;6254903;23;20103;-92
2022/12/18 14:11:21;;;;;;;47.85;23.25;;;;;;;;;;6259266;23;20015;-95
2022/12/18 14:14:07;;;;;;;;;;;;;;;;;;;;;
2022/12/18 14:16:43;;;;;;;56.75;25.35;;;;;;;;;;6263331;22;20008;-93
2022/12/18 14:19:38;;;;;;;;;;;;;;;;;;;;;
2022/12/18 14:22:05;;;;;;;51.42;23.80;;;;;;;;;;6253475;22;20035;-94
2022/12/18 14:24:33;;;;;;;52.95;24.50;;;;;;;;;;6256848;23;19996;-94
2022/12/18 14:46:48;;;;;;;;;;;;;;;;;;;;;
2022/12/18 14:49:32;;;;;;;48.08;23.52;;;;;;;;;;6219926;23;20028;-96
2022/12/18 15:13:21;;;;;;;55.13;24.55;;;;;;;;;;6223530;22;20024;-89
2022/12/18 15:15:48;;;;;;;56.15;24.00;;;;;;;;;;6190892;23;20029;-90
2022/12/18 15:21:25;;;;;;;52.83;26.17;;;;;;;;;;6185921;22;20400;-92
2022/12/18 15:23:52;;;;;;;63.75;29.58;;;;;;;;;;6250083;22;19999;-91
2022/12/18 15:26:19;;;;;;;70.82;31.58;;;;;;;;;;6250769;22;20087;-93
2022/12/18 15:28:55;;;;;;;;;;;;;;;;;;;;;
2022/12/18 15:31:35;;;;;;;75.47;33.15;;;;;;;;;;6278590;22;20091;-94
2022/12/18 15:34:15;;;;;;;60.10;26.45;;;;;;;;;;6278863;22;20039;-94
2022/12/18 15:36:43;;;;;;;53.88;24.25;;;;;;;;;;6253370;22;20031;-95
2022/12/18 15:45:22;;;;;;;64.10;27.27;;;;;;;;;;6278832;22;20452;-94
2022/12/18 15:47:53;;;;;;;59.42;26.60;;;;;;;;;;6247795;22;20082;-93
2022/12/18 15:50:22;;;;;;;57.92;26.45;;;;;;;;;;6248520;22;20004;-94
2022/12/18 16:05:10;;;;;;;71.53;29.52;;;;;;;;;;5375081;22;20070002;-93
2022/12/18 16:07:42;;;;;;;88.10;32.58;;;;;;;;;;6249472;22;20007;-94
2022/12/18 16:10:43;;;;;;;75.75;32.33;;;;;;;;;;6244412;22;20063;-93
2022/12/18 16:13:16;;;;;;;77.80;32.10;;;;;;;;;;6175136;22;20333;-94
2022/12/18 16:31:11;;;;;;;78.20;30.90;;;;;;;;;;6288861;22;20024;-94
2022/12/18 16:34:21;;;;;;;;;;;;;;;;;;;;;
2022/12/18 16:39:24;;;;;;;77.60;31.08;;;;;;;;;;6264648;22;20019;-94
2022/12/18 16:45:23;;;;;;;74.55;30.90;;;;;;;;;;6284528;22;20030;-94
2022/12/18 16:51:21;;;;;;;83.40;30.88;;;;;;;;;;6288789;22;20025;-95
2022/12/18 17:00:02;;;;;;;80.38;31.38;;;;;;;;;;6083985;23;20091;-94
2022/12/18 17:17:37;;;;;;;86.20;35.60;;;;;;;;;;6199532;23;20027;-94
2022/12/18 17:20:11;;;;;;;85.53;34.55;;;;;;;;;;6174092;23;20016;-91
2022/12/18 17:22:48;;;;;;;84.30;34.53;;;;;;;;;;6174553;23;20470;-94
2022/12/18 17:25:14;;;;;;;87.13;35.10;;;;;;;;;;6189501;23;20020;-88
2022/12/18 17:27:41;;;;;;;81.72;35.47;;;;;;;;;;6187287;23;20419;-93
2022/12/18 17:30:07;;;;;;;84.72;34.78;;;;;;;;;;6170046;23;20407;-91
2022/12/18 17:35:42;;;;;;;98.80;36.58;;;;;;;;;;6178936;23;20096;-89
2022/12/18 17:38:18;;;;;;;90.47;36.92;;;;;;;;;;6177758;22;20082;-92
2022/12/18 17:40:50;;;;;;;81.28;36.40;;;;;;;;;;6280882;22;20011;-92
2022/12/18 17:46:12;;;;;;;93.60;37.28;;;;;;;;;;6279904;22;20221;-88
2022/12/18 17:49:03;;;;;;;84.68;36.25;;;;;;;;;;6282836;22;20000;-93
2022/12/18 17:57:42;;;;;;;92.05;38.35;;;;;;;;;;6278954;22;20103;-92
2022/12/18 18:00:46;;;;;;;90.05;37.78;;;;;;;;;;6290124;22;20004;-93
2022/12/18 18:19:15;;;;;;;132.85;49.05;;;;;;;;;;6256063;23;20044;-95
2022/12/18 18:21:52;;;;;;;137.13;51.17;;;;;;;;;;6229144;23;20004;-94
2022/12/18 18:24:24;;;;;;;130.52;49.83;;;;;;;;;;6226711;23;20499;-95
2022/12/18 18:27:27;;;;;;;131.15;49.53;;;;;;;;;;6228227;23;20008;-96
2022/12/18 18:32:42;;;;;;;;;;;;;;;;;;;;;
2022/12/18 18:35:16;;;;;;;113.93;46.20;;;;;;;;;;6239647;22;20038;-96
2022/12/18 19:00:11;;;;;;;187.27;62.00;;;;;;;;;;6295177;22;20018;-94
2022/12/18 19:06:16;;;;;;;;;;;;;;;;;;;;;
2022/12/18 19:13:47;;;;;;;149.70;52.72;;;;;;;;;;6295944;22;20121;-95
2022/12/18 19:16:47;;;;;;;145.15;51.70;;;;;;;;;;6267472;22;20026;-95
2022/12/18 19:55:17;;;;;;;110.75;43.00;;;;;;;;;;6296473;22;20012;-94
2022/12/18 19:58:04;;;;;;;112.57;43.13;;;;;;;;;;6269490;22;20011;-94
2022/12/18 20:03:41;;;;;;;102.20;41.08;;;;;;;;;;6189966;23;20749;-92
2022/12/18 20:06:15;;;;;;;109.47;42.28;;;;;;;;;;6189461;23;20039;-94
2022/12/18 20:08:41;;;;;;;111.45;42.08;;;;;;;;;;6162841;23;20007;-94
2022/12/18 20:11:07;;;;;;;109.63;41.83;;;;;;;;;;6190622;23;20012;-94
2022/12/18 20:14:21;;;;;;;107.00;42.72;;;;;;;;;;6200044;23;20077;-96
2022/12/18 23:38:10;;;;;;;177.02;59.08;;;;;;;;;;6293758;22;20063;-95
2022/12/18 23:43:52;;;;;;;;;;;;;;;;;;;;;
2022/12/18 23:47:06;;;;;;;;;;;;;;;;;;;;;
